ESUP

Pajala Airport

Sweden
METAR ESUP 190550Z AUTO 00000KT 2600 -SN FEW011/// M26/M29 Q0998
Observed Flight Rules
Jan-19 @ 05:50 UTC (33 minutes ago) Instrument Flight Rules
Visibility Clouds Conditions
2,607 meters
  • Few at 1,100' AGL
  • Light Snow
Temperatures Readings
Current -26°C / -15°F
Dewpoint -29°C / -20°F
Humidity 76%
Altimeter 29.47" Hg
Pressure 997.92 hPa
Elevation 165
METAR ESUP 190550Z AUTO 00000KT 2600 -SN FEW011/// M26/M29 Q0998
Observed Flight Rules
Jan-19 @ 05:50 UTC
(33 minutes ago)
IFR
Clouds
  • Few at 1,100' AGL
Conditions
  • Light Snow
Temperature Dewpoint
-26°C / -15°F -29°C / -20°F
Humidity Altimeter Pressure
76% 29.47" Hg 997.92 hPa